Time,TemperatureF,DewpointF,PressureIn,WindDirection,WindDirectionDegrees,WindSpeedMPH,WindSpeedGustMPH,Humidity,HourlyPrecipIn,Conditions,Clouds,dailyrainin,SoftwareType,DateUTC
2013-07-31 00:12:00,66.2,64.0,30.05,WSW,256,1.0,3.0,92,0.00,,,0.00,weatherlink.com 1.10,2013-07-31 04:12:00,
2013-07-31 00:27:00,65.9,64.0,30.04,WSW,255,2.0,2.0,93,0.00,,,0.00,weatherlink.com 1.10,2013-07-31 04:27:00,
2013-07-31 00:42:00,66.0,64.0,30.04,WSW,252,0.0,3.0,93,0.00,,,0.00,weatherlink.com 1.10,2013-07-31 04:42:00,
2013-07-31 00:57:00,66.1,64.0,30.04,NW,304,1.0,4.0,93,0.00,,,0.00,weatherlink.com 1.10,2013-07-31 04:57:00,
2013-07-31 01:12:00,66.0,64.0,30.04,West,266,1.0,3.0,93,0.00,,,0.00,weatherlink.com 1.10,2013-07-31 05:12:00,
2013-07-31 01:27:00,65.8,64.0,30.04,West,276,1.0,4.0,93,0.00,,,0.00,weatherlink.com 1.10,2013-07-31 05:27:00,
2013-07-31 01:42:00,65.8,64.0,30.04,West,281,0.0,5.0,93,0.00,,,0.00,weatherlink.com 1.10,2013-07-31 05:42:00,
2013-07-31 01:57:00,65.5,64.0,30.03,West,270,2.0,3.0,94,0.00,,,0.00,weatherlink.com 1.10,2013-07-31 05:57:00,
2013-07-31 02:12:00,65.4,64.0,30.04,WNW,295,0.0,4.0,94,0.00,,,0.00,weatherlink.com 1.10,2013-07-31 06:12:00,
2013-07-31 02:27:00,-999.0,-99.9,30.04,North,-999,-999.0,-999.0,-999,0.00,,,0.00,weatherlink.com 1.10,2013-07-31 06:27:00,
2013-07-31 02:42:00,-999.0,-99.9,30.04,North,-999,-999.0,-999.0,-999,0.00,,,0.00,weatherlink.com 1.10,2013-07-31 06:42:00,
2013-07-31 02:57:00,-999.0,-99.9,30.04,North,-999,-999.0,-999.0,-999,0.00,,,0.00,weatherlink.com 1.10,2013-07-31 06:57:00,
2013-07-31 03:12:00,-999.0,-99.9,30.04,North,-999,-999.0,-999.0,-999,0.00,,,0.00,weatherlink.com 1.10,2013-07-31 07:12:00,
2013-07-31 03:27:00,-999.0,-99.9,30.04,North,-999,-999.0,-999.0,-999,0.00,,,0.00,weatherlink.com 1.10,2013-07-31 07:27:00,
2013-07-31 03:42:00,-999.0,-99.9,30.04,North,-999,-999.0,-999.0,-999,0.00,,,0.00,weatherlink.com 1.10,2013-07-31 07:42:00,
2013-07-31 03:57:00,-999.0,-99.9,30.04,North,-999,-999.0,-999.0,-999,0.00,,,0.00,weatherlink.com 1.10,2013-07-31 07:57:00,
2013-07-31 04:12:00,-999.0,-99.9,30.05,North,-999,-999.0,-999.0,-999,0.00,,,0.00,weatherlink.com 1.10,2013-07-31 08:12:00,
2013-07-31 04:27:00,-999.0,-99.9,30.05,North,-999,-999.0,-999.0,-999,0.00,,,0.00,weatherlink.com 1.10,2013-07-31 08:27:00,
2013-07-31 04:42:00,-999.0,-99.9,30.05,North,-999,-999.0,-999.0,-999,0.00,,,0.00,weatherlink.com 1.10,2013-07-31 08:42:00,
2013-07-31 04:57:00,-999.0,-99.9,30.06,North,-999,-999.0,-999.0,-999,0.00,,,0.00,weatherlink.com 1.10,2013-07-31 08:57:00,
2013-07-31 05:12:00,-999.0,-99.9,30.06,North,-999,-999.0,-999.0,-999,0.00,,,0.00,weatherlink.com 1.10,2013-07-31 09:12:00,
2013-07-31 05:28:00,-999.0,-99.9,30.06,North,-999,-999.0,-999.0,-999,0.00,,,0.00,weatherlink.com 1.10,2013-07-31 09:28:00,
2013-07-31 05:43:00,-999.0,-99.9,30.07,North,-999,-999.0,-999.0,-999,0.00,,,0.00,weatherlink.com 1.10,2013-07-31 09:43:00,
2013-07-31 05:58:00,-999.0,-99.9,30.07,North,-999,-999.0,-999.0,-999,0.00,,,0.00,weatherlink.com 1.10,2013-07-31 09:58:00,
2013-07-31 06:13:00,-999.0,-99.9,30.07,North,-999,-999.0,-999.0,-999,0.00,,,0.00,weatherlink.com 1.10,2013-07-31 10:13:00,
2013-07-31 06:28:00,-999.0,-99.9,30.07,North,-999,-999.0,-999.0,-999,0.00,,,0.00,weatherlink.com 1.10,2013-07-31 10:28:00,
2013-07-31 06:43:00,-999.0,-99.9,30.08,North,-999,-999.0,-999.0,-999,0.00,,,0.00,weatherlink.com 1.10,2013-07-31 10:43:00,
2013-07-31 06:58:00,69.5,65.0,30.08,NW,304,1.0,3.0,85,0.00,,,0.00,weatherlink.com 1.10,2013-07-31 10:58:00,
2013-07-31 07:13:00,70.6,66.0,30.08,NW,316,2.0,4.0,84,0.00,,,0.00,weatherlink.com 1.10,2013-07-31 11:13:00,
2013-07-31 07:28:00,71.5,67.0,30.08,WSW,250,0.0,4.0,84,0.00,,,0.00,weatherlink.com 1.10,2013-07-31 11:28:00,
2013-07-31 07:43:00,72.4,67.0,30.08,WNW,295,2.0,4.0,82,0.00,,,0.00,weatherlink.com 1.10,2013-07-31 11:43:00,
2013-07-31 07:58:00,72.9,65.0,30.08,NW,321,3.0,6.0,76,0.00,,,0.00,weatherlink.com 1.10,2013-07-31 11:58:00,
2013-07-31 08:13:00,73.2,65.0,30.08,NNW,341,5.0,6.0,76,0.00,,,0.00,weatherlink.com 1.10,2013-07-31 12:13:00,
2013-07-31 08:28:00,73.3,65.0,30.08,WNW,283,3.0,6.0,74,0.00,,,0.00,weatherlink.com 1.10,2013-07-31 12:28:00,
2013-07-31 08:43:00,73.5,64.0,30.09,WNW,302,3.0,6.0,73,0.00,,,0.00,weatherlink.com 1.10,2013-07-31 12:43:00,
2013-07-31 08:58:00,73.8,64.0,30.08,North,354,2.0,5.0,71,0.00,,,0.00,weatherlink.com 1.10,2013-07-31 12:58:00,
2013-07-31 09:13:00,73.9,64.0,30.08,NNE,15,2.0,5.0,70,0.00,,,0.00,weatherlink.com 1.10,2013-07-31 13:13:00,
2013-07-31 09:28:00,74.4,65.0,30.08,NNE,23,4.0,5.0,72,0.00,,,0.00,weatherlink.com 1.10,2013-07-31 13:28:00,
2013-07-31 09:43:00,74.3,63.0,30.08,NE,44,3.0,4.0,69,0.00,,,0.00,weatherlink.com 1.10,2013-07-31 13:43:00,
2013-07-31 09:58:00,74.3,65.0,30.08,NNE,25,3.0,5.0,72,0.00,,,0.00,weatherlink.com 1.10,2013-07-31 13:58:00,
2013-07-31 10:13:00,74.5,65.0,30.08,NE,49,3.0,4.0,71,0.00,,,0.00,weatherlink.com 1.10,2013-07-31 14:13:00,
2013-07-31 10:28:00,74.4,63.0,30.08,ENE,58,5.0,5.0,68,0.00,,,0.00,weatherlink.com 1.10,2013-07-31 14:28:00,
2013-07-31 10:43:00,74.4,64.0,30.08,NE,39,3.0,5.0,69,0.00,,,0.00,weatherlink.com 1.10,2013-07-31 14:43:00,
2013-07-31 10:58:00,74.7,64.0,30.08,ENE,63,2.0,4.0,69,0.00,,,0.00,weatherlink.com 1.10,2013-07-31 14:58:00,
2013-07-31 11:13:00,75.0,65.0,30.07,SE,124,6.0,6.0,72,0.00,,,0.00,weatherlink.com 1.10,2013-07-31 15:13:00,
2013-07-31 11:28:00,76.0,67.0,30.07,SE,132,5.0,7.0,73,0.00,,,0.00,weatherlink.com 1.10,2013-07-31 15:28:00,
2013-07-31 11:43:00,76.4,67.0,30.07,SSE,148,6.0,9.0,72,0.00,,,0.00,weatherlink.com 1.10,2013-07-31 15:43:00,
2013-07-31 11:58:00,75.9,66.0,30.07,SSE,153,6.0,11.0,71,0.00,,,0.00,weatherlink.com 1.10,2013-07-31 15:58:00,
2013-07-31 12:13:00,76.6,65.0,30.07,ESE,123,1.0,8.0,67,0.00,,,0.00,weatherlink.com 1.10,2013-07-31 16:13:00,
2013-07-31 12:28:00,77.2,65.0,30.07,South,170,7.0,10.0,66,0.00,,,0.00,weatherlink.com 1.10,2013-07-31 16:28:00,
2013-07-31 12:43:00,77.2,66.0,30.07,WSW,238,3.0,10.0,68,0.00,,,0.00,weatherlink.com 1.10,2013-07-31 16:43:00,
2013-07-31 12:58:00,77.7,63.0,30.06,SW,222,8.0,11.0,61,0.00,,,0.00,weatherlink.com 1.10,2013-07-31 16:58:00,
2013-07-31 13:14:00,77.9,62.0,30.06,SE,131,5.0,9.0,58,0.00,,,0.00,weatherlink.com 1.10,2013-07-31 17:14:00,
2013-07-31 13:29:00,77.8,62.0,30.06,SSW,209,4.0,12.0,58,0.00,,,0.00,weatherlink.com 1.10,2013-07-31 17:29:00,
2013-07-31 13:44:00,77.6,62.0,30.06,West,263,5.0,12.0,58,0.00,,,0.00,weatherlink.com 1.10,2013-07-31 17:44:00,
2013-07-31 13:59:00,77.3,61.0,30.06,SSW,209,6.0,11.0,58,0.00,,,0.00,weatherlink.com 1.10,2013-07-31 17:59:00,
2013-07-31 14:15:00,77.5,62.0,30.06,WSW,246,5.0,7.0,59,0.00,,,0.00,weatherlink.com 1.10,2013-07-31 18:15:00,
2013-07-31 14:29:00,77.0,62.0,30.05,SW,224,10.0,10.0,61,0.00,,,0.00,weatherlink.com 1.10,2013-07-31 18:29:00,
2013-07-31 14:44:00,77.6,63.0,30.05,SSW,201,2.0,7.0,62,0.00,,,0.00,weatherlink.com 1.10,2013-07-31 18:44:00,
2013-07-31 14:59:00,77.2,63.0,30.05,West,277,1.0,7.0,62,0.00,,,0.00,weatherlink.com 1.10,2013-07-31 18:59:00,
2013-07-31 15:14:00,76.9,62.0,30.05,WNW,297,2.0,11.0,60,0.00,,,0.00,weatherlink.com 1.10,2013-07-31 19:14:00,
2013-07-31 15:29:00,77.1,62.0,30.05,West,267,4.0,8.0,60,0.00,,,0.00,weatherlink.com 1.10,2013-07-31 19:29:00,
2013-07-31 15:44:00,76.0,62.0,30.05,SSW,211,6.0,12.0,62,0.00,,,0.00,weatherlink.com 1.10,2013-07-31 19:44:00,
2013-07-31 15:59:00,76.0,64.0,30.05,NW,305,1.0,7.0,66,0.00,,,0.00,weatherlink.com 1.10,2013-07-31 19:59:00,
2013-07-31 16:14:00,76.5,65.0,30.05,SW,219,1.0,7.0,67,0.00,,,0.00,weatherlink.com 1.10,2013-07-31 20:14:00,
2013-07-31 16:29:00,76.4,65.0,30.04,WSW,240,2.0,6.0,67,0.00,,,0.00,weatherlink.com 1.10,2013-07-31 20:29:00,
2013-07-31 16:44:00,76.4,64.0,30.04,West,269,3.0,10.0,65,0.00,,,0.00,weatherlink.com 1.10,2013-07-31 20:44:00,
2013-07-31 16:59:00,75.2,64.0,30.04,South,184,1.0,9.0,68,0.00,,,0.00,weatherlink.com 1.10,2013-07-31 20:59:00,
2013-07-31 17:14:00,75.2,64.0,30.04,NW,306,0.0,6.0,69,0.00,,,0.00,weatherlink.com 1.10,2013-07-31 21:14:00,
2013-07-31 17:29:00,74.4,64.0,30.04,WSW,257,2.0,8.0,71,0.00,,,0.00,weatherlink.com 1.10,2013-07-31 21:29:00,
2013-07-31 17:44:00,73.9,66.0,30.04,SW,218,1.0,6.0,76,0.00,,,0.00,weatherlink.com 1.10,2013-07-31 21:44:00,
2013-07-31 17:59:00,73.9,65.0,30.04,South,172,0.0,6.0,74,0.00,,,0.00,weatherlink.com 1.10,2013-07-31 21:59:00,
2013-07-31 18:14:00,74.5,65.0,30.04,SW,218,2.0,6.0,73,0.00,,,0.00,weatherlink.com 1.10,2013-07-31 22:14:00,
2013-07-31 18:29:00,74.2,65.0,30.04,SSW,207,1.0,4.0,73,0.00,,,0.00,weatherlink.com 1.10,2013-07-31 22:29:00,
2013-07-31 18:44:00,73.4,65.0,30.04,SE,134,1.0,5.0,76,0.00,,,0.00,weatherlink.com 1.10,2013-07-31 22:44:00,
2013-07-31 18:59:00,72.0,65.0,30.04,SSE,149,0.0,6.0,78,0.00,,,0.00,weatherlink.com 1.10,2013-07-31 22:59:00,
2013-07-31 19:14:00,70.8,65.0,30.03,South,172,1.0,3.0,82,0.00,,,0.00,weatherlink.com 1.10,2013-07-31 23:14:00,
2013-07-31 19:44:00,69.2,65.0,30.03,SSW,195,0.0,2.0,85,0.00,,,0.00,weatherlink.com 1.10,2013-07-31 23:44:00,
2013-07-31 19:59:00,68.6,65.0,30.03,SW,218,0.0,2.0,87,0.00,,,0.00,weatherlink.com 1.10,2013-07-31 23:59:00,
2013-07-31 20:14:00,68.3,65.0,30.03,South,188,0.0,1.0,88,0.00,,,0.00,weatherlink.com 1.10,2013-08-01 00:14:00,
2013-07-31 20:29:00,67.8,65.0,30.04,South,184,0.0,1.0,89,0.00,,,0.00,weatherlink.com 1.10,2013-08-01 00:29:00,
2013-07-31 20:44:00,67.5,65.0,30.03,South,191,0.0,1.0,90,0.00,,,0.00,weatherlink.com 1.10,2013-08-01 00:44:00,
2013-07-31 20:59:00,67.3,64.0,30.04,South,191,0.0,1.0,90,0.00,,,0.00,weatherlink.com 1.10,2013-08-01 00:59:00,
2013-07-31 21:14:00,67.2,65.0,30.04,South,172,0.0,1.0,91,0.00,,,0.00,weatherlink.com 1.10,2013-08-01 01:14:00,
2013-07-31 21:29:00,67.1,65.0,30.04,WSW,239,0.0,2.0,92,0.00,,,0.00,weatherlink.com 1.10,2013-08-01 01:29:00,
2013-07-31 21:44:00,67.0,65.0,30.04,SW,232,0.0,1.0,92,0.00,,,0.00,weatherlink.com 1.10,2013-08-01 01:44:00,
2013-07-31 21:59:00,66.9,65.0,30.04,SSW,193,0.0,2.0,93,0.00,,,0.00,weatherlink.com 1.10,2013-08-01 01:59:00,
2013-07-31 22:14:00,66.7,65.0,30.03,SSW,193,0.0,1.0,93,0.00,,,0.00,weatherlink.com 1.10,2013-08-01 02:14:00,
2013-07-31 22:29:00,66.4,65.0,30.03,SSW,213,0.0,1.0,94,0.00,,,0.00,weatherlink.com 1.10,2013-08-01 02:29:00,
2013-07-31 22:44:00,66.2,65.0,30.03,SW,224,0.0,1.0,94,0.00,,,0.00,weatherlink.com 1.10,2013-08-01 02:44:00,
2013-07-31 22:59:00,66.2,65.0,30.03,South,179,0.0,2.0,94,0.00,,,0.00,weatherlink.com 1.10,2013-08-01 02:59:00,
2013-07-31 23:14:00,66.7,65.0,30.03,SSW,210,0.0,2.0,95,0.00,,,0.00,weatherlink.com 1.10,2013-08-01 03:14:00,
2013-07-31 23:29:00,66.9,66.0,30.03,SSW,212,0.0,2.0,95,0.00,,,0.00,weatherlink.com 1.10,2013-08-01 03:29:00,
2013-07-31 23:44:00,66.6,65.0,30.03,SW,218,0.0,2.0,94,0.00,,,0.00,weatherlink.com 1.10,2013-08-01 03:44:00,
2013-07-31 23:59:00,66.2,65.0,30.03,SW,221,0.0,1.0,94,0.00,,,0.00,weatherlink.com 1.10,2013-08-01 03:59:00,